Barnstead, New Hampshire
Current Conditions -  °F | °C
As of 8:51 AM on Monday 20 Oct 2014 (Local Time) from KCON Reporting Station
Clear Clear  
Wind Chill: 36°   Ceiling: Unl
Heat Index: 39°   Visibility: 10mi
Dew Point: 26°   Wind: 5mph
Humidity: 60%   Direction: 240°WSW
Pressure: 30.02"   Gusts: NA
Location:  43.33°N, 71.29°W
Report Text: KCON 201251Z AUTO 24004KT 10SM CLR 04/M03 A3002 RMK AO2 SLP169 T00391033
Loading
Personal Weather Stations






























Interactive Weather Map
Tropical Storm Tracking
New forecast layout! Learn more

10-Day Weather Forecast

Advertisements
Track Severe Weather on mobile